Jakarta/Halim Perdanakusuma International Airport

Airport
ICAO code: 
WIHH
IATA Code: 
HLP
Summary
ICAO Region: 
APAC
Territory: 
Location: 
East Jakarta, Jakarta
Serving: 
Jakarta
Elevation: 
82 ft
Coordinates: 
Aerial View: 
6° 16' 2.575" S, 106° 53' 24.279" E
Metar
Observation
WIHH 072330Z 18004KT 6000 FEW020 25/24 Q1010 NOSIG
Station
HALIM PERDANAKUS
Date/Time
2021-12-07 23:30:00
Wind direction
180°
Wind speed
04 kts
Lowest cloud amount
few clouds
Temperature
25°C
Dew point
24°C
Humidity
94%
QNH
1010 hPa
Weather condition
n/a

Airport serving Jakarta.

Climatology

Tropical Savanna climate (Köppen climate classification Aw) - monthly mean temperature above 18°C in every month of the year and a pronounced dry season.

Runways

Designator Length Width Surface Rops
6/24 3000 45 ASP Yes/Yes
Airport map: 
Aerial View: 

Accidents and Serious Incidents at or in the vicinity of WIHH

SKYbrary Partners:

Safety knowledge contributed by: